sensor_id;sensor_type;location;lat;lon;timestamp;pressure;altitude;pressure_sealevel;temperature;humidity
69318;BME280;56457;52.190;4.440;2022-12-18T00:00:26;102853.81;;;-2.38;100.00
69318;BME280;56457;52.190;4.440;2022-12-18T00:01:27;102857.16;;;-2.39;100.00
69318;BME280;56457;52.190;4.440;2022-12-18T00:02:28;102853.44;;;-2.43;100.00
69318;BME280;56457;52.190;4.440;2022-12-18T00:03:28;102852.44;;;-2.45;100.00
69318;BME280;56457;52.190;4.440;2022-12-18T00:04:28;102855.00;;;-2.45;100.00
69318;BME280;56457;52.190;4.440;2022-12-18T00:05:29;102855.47;;;-2.39;100.00
69318;BME280;56457;52.190;4.440;2022-12-18T00:06:29;102860.72;;;-2.37;100.00
69318;BME280;56457;52.190;4.440;2022-12-18T00:07:30;102860.66;;;-2.27;100.00
69318;BME280;56457;52.190;4.440;2022-12-18T00:08:30;102853.50;;;-2.31;100.00
69318;BME280;56457;52.190;4.440;2022-12-18T00:09:30;102855.94;;;-2.33;100.00
69318;BME280;56457;52.190;4.440;2022-12-18T00:10:31;102860.09;;;-2.35;100.00
69318;BME280;56457;52.190;4.440;2022-12-18T00:11:31;102863.91;;;-2.30;100.00
69318;BME280;56457;52.190;4.440;2022-12-18T00:12:31;102868.50;;;-2.26;100.00
69318;BME280;56457;52.190;4.440;2022-12-18T00:13:32;102868.91;;;-2.31;100.00
69318;BME280;56457;52.190;4.440;2022-12-18T00:14:32;102858.06;;;-2.39;100.00
69318;BME280;56457;52.190;4.440;2022-12-18T00:15:33;102859.06;;;-2.37;100.00
69318;BME280;56457;52.190;4.440;2022-12-18T00:16:34;102850.44;;;-2.37;100.00
69318;BME280;56457;52.190;4.440;2022-12-18T00:17:36;102851.13;;;-2.40;100.00
69318;BME280;56457;52.190;4.440;2022-12-18T00:18:37;102852.25;;;-2.36;100.00
69318;BME280;56457;52.190;4.440;2022-12-18T00:19:37;102858.59;;;-2.43;100.00
69318;BME280;56457;52.190;4.440;2022-12-18T00:20:38;102852.81;;;-2.40;100.00
69318;BME280;56457;52.190;4.440;2022-12-18T00:21:38;102856.91;;;-2.42;100.00
69318;BME280;56457;52.190;4.440;2022-12-18T00:22:38;102858.38;;;-2.46;100.00
69318;BME280;56457;52.190;4.440;2022-12-18T00:23:39;102852.44;;;-2.45;100.00
69318;BME280;56457;52.190;4.440;2022-12-18T00:24:40;102854.91;;;-2.47;100.00
69318;BME280;56457;52.190;4.440;2022-12-18T00:25:41;102844.50;;;-2.48;100.00
69318;BME280;56457;52.190;4.440;2022-12-18T00:26:41;102846.78;;;-2.41;100.00
69318;BME280;56457;52.190;4.440;2022-12-18T00:27:41;102834.69;;;-2.42;100.00
69318;BME280;56457;52.190;4.440;2022-12-18T00:28:42;102844.84;;;-2.44;100.00
69318;BME280;56457;52.190;4.440;2022-12-18T00:29:42;102838.91;;;-2.42;100.00
69318;BME280;56457;52.190;4.440;2022-12-18T00:30:42;102839.47;;;-2.47;100.00
69318;BME280;56457;52.190;4.440;2022-12-18T00:31:42;102852.56;;;-2.44;100.00
69318;BME280;56457;52.190;4.440;2022-12-18T00:32:43;102843.59;;;-2.49;100.00
69318;BME280;56457;52.190;4.440;2022-12-18T00:33:43;102844.06;;;-2.42;100.00
69318;BME280;56457;52.190;4.440;2022-12-18T00:34:44;102851.59;;;-2.34;100.00
69318;BME280;56457;52.190;4.440;2022-12-18T00:35:44;102849.25;;;-2.31;100.00
69318;BME280;56457;52.190;4.440;2022-12-18T00:36:46;102850.38;;;-2.27;100.00
69318;BME280;56457;52.190;4.440;2022-12-18T00:37:47;102854.84;;;-2.25;100.00
69318;BME280;56457;52.190;4.440;2022-12-18T00:38:47;102839.75;;;-2.32;100.00
69318;BME280;56457;52.190;4.440;2022-12-18T00:39:48;102842.19;;;-2.33;100.00
69318;BME280;56457;52.190;4.440;2022-12-18T00:40:48;102838.50;;;-2.37;100.00
69318;BME280;56457;52.190;4.440;2022-12-18T00:41:48;102836.72;;;-2.38;100.00
69318;BME280;56457;52.190;4.440;2022-12-18T00:43:08;102851.34;;;-2.37;100.00
69318;BME280;56457;52.190;4.440;2022-12-18T00:44:09;102847.19;;;-2.47;100.00
69318;BME280;56457;52.190;4.440;2022-12-18T00:45:10;102849.34;;;-2.41;100.00
69318;BME280;56457;52.190;4.440;2022-12-18T00:46:10;102848.44;;;-2.41;100.00
69318;BME280;56457;52.190;4.440;2022-12-18T00:47:10;102852.03;;;-2.39;100.00
69318;BME280;56457;52.190;4.440;2022-12-18T00:48:11;102848.66;;;-2.38;100.00
69318;BME280;56457;52.190;4.440;2022-12-18T00:49:11;102853.44;;;-2.43;100.00
69318;BME280;56457;52.190;4.440;2022-12-18T00:50:11;102855.91;;;-2.45;100.00
69318;BME280;56457;52.190;4.440;2022-12-18T00:51:12;102857.84;;;-2.42;100.00
69318;BME280;56457;52.190;4.440;2022-12-18T00:52:12;102858.06;;;-2.39;100.00
69318;BME280;56457;52.190;4.440;2022-12-18T00:53:12;102861.16;;;-2.43;100.00
69318;BME280;56457;52.190;4.440;2022-12-18T00:54:12;102855.78;;;-2.46;100.00
69318;BME280;56457;52.190;4.440;2022-12-18T00:55:13;102851.75;;;-2.54;100.00
69318;BME280;56457;52.190;4.440;2022-12-18T00:56:13;102851.19;;;-2.50;100.00
69318;BME280;56457;52.190;4.440;2022-12-18T00:57:14;102844.25;;;-2.51;100.00
69318;BME280;56457;52.190;4.440;2022-12-18T00:58:15;102847.50;;;-2.54;100.00
69318;BME280;56457;52.190;4.440;2022-12-18T00:59:16;102847.84;;;-2.49;100.00
69318;BME280;56457;52.190;4.440;2022-12-18T01:00:17;102856.22;;;-2.52;100.00
69318;BME280;56457;52.190;4.440;2022-12-18T01:01:17;102851.97;;;-2.51;100.00
69318;BME280;56457;52.190;4.440;2022-12-18T01:02:17;102860.03;;;-2.47;100.00
69318;BME280;56457;52.190;4.440;2022-12-18T01:03:17;102847.84;;;-2.49;100.00
69318;BME280;56457;52.190;4.440;2022-12-18T01:04:18;102854.13;;;-2.46;100.00
69318;BME280;56457;52.190;4.440;2022-12-18T01:05:18;102867.09;;;-2.44;100.00
69318;BME280;56457;52.190;4.440;2022-12-18T01:06:19;102866.59;;;-2.50;100.00
69318;BME280;56457;52.190;4.440;2022-12-18T01:07:19;102862.66;;;-2.57;100.00
69318;BME280;56457;52.190;4.440;2022-12-18T01:08:20;102864.03;;;-2.50;100.00
69318;BME280;56457;52.190;4.440;2022-12-18T01:09:20;102864.81;;;-2.51;100.00
69318;BME280;56457;52.190;4.440;2022-12-18T01:10:20;102857.91;;;-2.52;100.00
69318;BME280;56457;52.190;4.440;2022-12-18T01:11:21;102858.63;;;-2.65;100.00
69318;BME280;56457;52.190;4.440;2022-12-18T01:12:21;102869.19;;;-2.50;100.00
69318;BME280;56457;52.190;4.440;2022-12-18T01:13:21;102858.13;;;-2.49;100.00
69318;BME280;56457;52.190;4.440;2022-12-18T01:14:21;102864.16;;;-2.49;100.00
69318;BME280;56457;52.190;4.440;2022-12-18T01:15:22;102861.72;;;-2.47;100.00
69318;BME280;56457;52.190;4.440;2022-12-18T01:16:22;102870.69;;;-2.42;100.00
69318;BME280;56457;52.190;4.440;2022-12-18T01:17:23;102863.72;;;-2.43;100.00
69318;BME280;56457;52.190;4.440;2022-12-18T01:18:23;102859.47;;;-2.42;100.00
69318;BME280;56457;52.190;4.440;2022-12-18T01:19:23;102859.16;;;-2.47;100.00
69318;BME280;56457;52.190;4.440;2022-12-18T01:20:23;102859.78;;;-2.50;100.00
69318;BME280;56457;52.190;4.440;2022-12-18T01:21:24;102855.31;;;-2.52;100.00
69318;BME280;56457;52.190;4.440;2022-12-18T01:22:24;102863.69;;;-2.55;100.00
69318;BME280;56457;52.190;4.440;2022-12-18T01:23:24;102855.84;;;-2.56;100.00
69318;BME280;56457;52.190;4.440;2022-12-18T01:24:25;102856.53;;;-2.59;100.00
69318;BME280;56457;52.190;4.440;2022-12-18T01:25:25;102857.41;;;-2.58;100.00
69318;BME280;56457;52.190;4.440;2022-12-18T01:26:25;102860.22;;;-2.55;100.00
69318;BME280;56457;52.190;4.440;2022-12-18T01:27:27;102867.50;;;-2.50;100.00
69318;BME280;56457;52.190;4.440;2022-12-18T01:28:27;102855.84;;;-2.56;100.00
69318;BME280;56457;52.190;4.440;2022-12-18T01:29:27;102858.50;;;-2.66;100.00
69318;BME280;56457;52.190;4.440;2022-12-18T01:30:28;102871.63;;;-2.74;100.00
69318;BME280;56457;52.190;4.440;2022-12-18T01:31:30;102863.16;;;-2.73;100.00
69318;BME280;56457;52.190;4.440;2022-12-18T01:32:30;102871.00;;;-2.71;100.00
69318;BME280;56457;52.190;4.440;2022-12-18T01:33:31;102868.53;;;-2.69;100.00
69318;BME280;56457;52.190;4.440;2022-12-18T01:34:31;102864.47;;;-2.78;100.00
69318;BME280;56457;52.190;4.440;2022-12-18T01:35:32;102868.56;;;-2.80;100.00
69318;BME280;56457;52.190;4.440;2022-12-18T01:36:34;102868.56;;;-2.80;100.00
69318;BME280;56457;52.190;4.440;2022-12-18T01:37:34;102871.44;;;-2.87;100.00
69318;BME280;56457;52.190;4.440;2022-12-18T01:38:34;102863.75;;;-2.87;100.00
69318;BME280;56457;52.190;4.440;2022-12-18T01:39:35;102877.63;;;-2.85;100.00
69318;BME280;56457;52.190;4.440;2022-12-18T01:40:35;102868.06;;;-2.76;100.00
69318;BME280;56457;52.190;4.440;2022-12-18T01:41:35;102871.16;;;-2.80;100.00
69318;BME280;56457;52.190;4.440;2022-12-18T01:42:54;102873.88;;;-2.78;100.00
69318;BME280;56457;52.190;4.440;2022-12-18T01:43:55;102869.63;;;-2.78;100.00
69318;BME280;56457;52.190;4.440;2022-12-18T01:46:16;102874.56;;;-2.69;100.00
69318;BME280;56457;52.190;4.440;2022-12-18T01:47:21;102878.28;;;-2.65;100.00
69318;BME280;56457;52.190;4.440;2022-12-18T01:48:23;102874.03;;;-2.65;100.00
69318;BME280;56457;52.190;4.440;2022-12-18T01:49:23;102872.09;;;-2.67;100.00
69318;BME280;56457;52.190;4.440;2022-12-18T01:51:33;102877.13;;;-2.69;100.00
69318;BME280;56457;52.190;4.440;2022-12-18T01:52:34;102877.81;;;-2.72;100.00
69318;BME280;56457;52.190;4.440;2022-12-18T01:53:34;102875.72;;;-2.65;100.00
69318;BME280;56457;52.190;4.440;2022-12-18T01:54:36;102884.78;;;-2.59;100.00
69318;BME280;56457;52.190;4.440;2022-12-18T01:55:37;102883.16;;;-2.68;100.00
69318;BME280;56457;52.190;4.440;2022-12-18T01:56:39;102885.50;;;-2.72;100.00
69318;BME280;56457;52.190;4.440;2022-12-18T01:57:41;102878.59;;;-2.73;100.00
69318;BME280;56457;52.190;4.440;2022-12-18T01:59:55;102888.13;;;-2.82;100.00
69318;BME280;56457;52.190;4.440;2022-12-18T02:00:57;102901.09;;;-2.80;100.00
69318;BME280;56457;52.190;4.440;2022-12-18T02:01:57;102896.34;;;-2.86;100.00
69318;BME280;56457;52.190;4.440;2022-12-18T02:02:57;102900.78;;;-2.95;100.00
69318;BME280;56457;52.190;4.440;2022-12-18T02:04:16;102895.53;;;-2.96;100.00
69318;BME280;56457;52.190;4.440;2022-12-18T02:05:19;102894.25;;;-3.02;100.00
69318;BME280;56457;52.190;4.440;2022-12-18T02:07:43;102899.38;;;-2.91;100.00
69318;BME280;56457;52.190;4.440;2022-12-18T02:08:53;102900.13;;;-2.92;100.00
69318;BME280;56457;52.190;4.440;2022-12-18T02:11:08;102900.56;;;-2.76;100.00
69318;BME280;56457;52.190;4.440;2022-12-18T02:12:16;102902.25;;;-2.77;100.00
69318;BME280;56457;52.190;4.440;2022-12-18T02:14:37;102897.63;;;-2.81;100.00
69318;BME280;56457;52.190;4.440;2022-12-18T02:15:39;102899.19;;;-2.83;100.00
69318;BME280;56457;52.190;4.440;2022-12-18T02:17:50;102902.28;;;-2.87;100.00
69318;BME280;56457;52.190;4.440;2022-12-18T02:18:54;102907.00;;;-2.81;100.00
69318;BME280;56457;52.190;4.440;2022-12-18T02:22:23;102887.81;;;-2.75;100.00
69318;BME280;56457;52.190;4.440;2022-12-18T02:26:02;102890.06;;;-2.79;100.00
69318;BME280;56457;52.190;4.440;2022-12-18T02:27:05;102892.75;;;-2.78;100.00
69318;BME280;56457;52.190;4.440;2022-12-18T02:28:07;102891.22;;;-2.86;100.00
69318;BME280;56457;52.190;4.440;2022-12-18T02:29:13;102892.06;;;-2.97;100.00
69318;BME280;56457;52.190;4.440;2022-12-18T02:30:15;102886.28;;;-3.05;100.00
69318;BME280;56457;52.190;4.440;2022-12-18T02:31:17;102884.00;;;-3.02;100.00
69318;BME280;56457;52.190;4.440;2022-12-18T02:32:24;102887.75;;;-3.08;100.00
69318;BME280;56457;52.190;4.440;2022-12-18T02:33:26;102887.63;;;-3.10;100.00
69318;BME280;56457;52.190;4.440;2022-12-18T02:34:31;102892.09;;;-3.07;100.00
69318;BME280;56457;52.190;4.440;2022-12-18T02:35:32;102887.63;;;-3.10;100.00
69318;BME280;56457;52.190;4.440;2022-12-18T02:36:33;102883.63;;;-3.06;100.00
69318;BME280;56457;52.190;4.440;2022-12-18T02:37:36;102881.78;;;-2.97;100.00
69318;BME280;56457;52.190;4.440;2022-12-18T02:38:39;102873.94;;;-2.99;100.00
69318;BME280;56457;52.190;4.440;2022-12-18T02:39:40;102862.13;;;-2.96;100.00
69318;BME280;56457;52.190;4.440;2022-12-18T02:40:41;102866.38;;;-2.97;100.00
69318;BME280;56457;52.190;4.440;2022-12-18T02:41:42;102867.28;;;-2.96;100.00
69318;BME280;56457;52.190;4.440;2022-12-18T02:42:42;102867.28;;;-2.96;100.00
69318;BME280;56457;52.190;4.440;2022-12-18T02:43:47;102864.59;;;-2.98;100.00
69318;BME280;56457;52.190;4.440;2022-12-18T02:44:49;102859.56;;;-2.96;100.00
69318;BME280;56457;52.190;4.440;2022-12-18T02:45:52;102860.56;;;-2.94;100.00
69318;BME280;56457;52.190;4.440;2022-12-18T02:46:53;102853.53;;;-2.97;100.00
69318;BME280;56457;52.190;4.440;2022-12-18T02:47:54;102853.75;;;-2.94;100.00
69318;BME280;56457;52.190;4.440;2022-12-18T02:48:57;102849.19;;;-2.98;100.00
69318;BME280;56457;52.190;4.440;2022-12-18T02:50:07;102854.09;;;-3.11;100.00
69318;BME280;56457;52.190;4.440;2022-12-18T02:51:24;102847.28;;;-3.11;100.00
69318;BME280;56457;52.190;4.440;2022-12-18T02:53:56;102850.44;;;-3.25;100.00
69318;BME280;56457;52.190;4.440;2022-12-18T02:55:17;102844.94;;;-3.30;100.00
69318;BME280;56457;52.190;4.440;2022-12-18T02:56:24;102851.13;;;-3.38;100.00
69318;BME280;56457;52.190;4.440;2022-12-18T02:57:33;102850.31;;;-3.27;100.00
69318;BME280;56457;52.190;4.440;2022-12-18T02:59:38;102846.28;;;-3.13;100.00
69318;BME280;56457;52.190;4.440;2022-12-18T03:00:47;102846.88;;;-3.05;100.00
69318;BME280;56457;52.190;4.440;2022-12-18T03:01:57;102836.91;;;-3.12;100.00
69318;BME280;56457;52.190;4.440;2022-12-18T03:06:51;102842.25;;;-3.31;100.00
69318;BME280;56457;52.190;4.440;2022-12-18T03:07:58;102840.72;;;-3.29;100.00
69318;BME280;56457;52.190;4.440;2022-12-18T03:09:02;102848.66;;;-3.26;100.00
69318;BME280;56457;52.190;4.440;2022-12-18T03:10:06;102844.13;;;-3.18;100.00
69318;BME280;56457;52.190;4.440;2022-12-18T03:11:09;102841.19;;;-3.23;100.00
69318;BME280;56457;52.190;4.440;2022-12-18T03:12:12;102840.78;;;-3.17;100.00
69318;BME280;56457;52.190;4.440;2022-12-18T03:13:25;102837.69;;;-3.13;100.00
69318;BME280;56457;52.190;4.440;2022-12-18T03:14:28;102842.22;;;-3.21;100.00
69318;BME280;56457;52.190;4.440;2022-12-18T03:15:34;102841.03;;;-3.14;100.00
69318;BME280;56457;52.190;4.440;2022-12-18T03:16:36;102840.78;;;-3.17;100.00
69318;BME280;56457;52.190;4.440;2022-12-18T03:17:38;102841.31;;;-3.21;100.00
69318;BME280;56457;52.190;4.440;2022-12-18T03:19:40;102834.75;;;-3.18;100.00
69318;BME280;56457;52.190;4.440;2022-12-18T03:20:41;102833.75;;;-3.20;100.00
69318;BME280;56457;52.190;4.440;2022-12-18T03:21:45;102831.56;;;-3.26;100.00
69318;BME280;56457;52.190;4.440;2022-12-18T03:22:46;102832.47;;;-3.25;100.00
69318;BME280;56457;52.190;4.440;2022-12-18T03:23:49;102832.72;;;-3.22;100.00
69318;BME280;56457;52.190;4.440;2022-12-18T03:24:50;102837.22;;;-3.30;100.00
69318;BME280;56457;52.190;4.440;2022-12-18T03:25:52;102829.91;;;-3.25;100.00
69318;BME280;56457;52.190;4.440;2022-12-18T03:26:54;102834.91;;;-3.27;100.00
69318;BME280;56457;52.190;4.440;2022-12-18T03:27:58;102830.69;;;-3.26;100.00
69318;BME280;56457;52.190;4.440;2022-12-18T03:29:06;102837.97;;;-3.20;100.00
69318;BME280;56457;52.190;4.440;2022-12-18T03:30:08;102831.53;;;-3.15;100.00
69318;BME280;56457;52.190;4.440;2022-12-18T03:31:09;102834.88;;;-3.16;100.00
69318;BME280;56457;52.190;4.440;2022-12-18T03:32:13;102832.97;;;-3.19;100.00
69318;BME280;56457;52.190;4.440;2022-12-18T03:33:17;102835.63;;;-3.17;100.00
69318;BME280;56457;52.190;4.440;2022-12-18T03:34:21;102832.31;;;-3.16;100.00
69318;BME280;56457;52.190;4.440;2022-12-18T03:35:25;102823.84;;;-3.15;100.00
69318;BME280;56457;52.190;4.440;2022-12-18T03:36:26;102834.75;;;-3.18;100.00
69318;BME280;56457;52.190;4.440;2022-12-18T03:37:27;102831.06;;;-3.21;100.00
69318;BME280;56457;52.190;4.440;2022-12-18T03:38:27;102823.09;;;-3.25;100.00
69318;BME280;56457;52.190;4.440;2022-12-18T03:39:27;102824.88;;;-3.23;100.00
69318;BME280;56457;52.190;4.440;2022-12-18T03:40:35;102826.56;;;-3.24;100.00
69318;BME280;56457;52.190;4.440;2022-12-18T03:42:52;102822.97;;;-3.26;100.00
69318;BME280;56457;52.190;4.440;2022-12-18T03:43:59;102815.31;;;-3.36;100.00
69318;BME280;56457;52.190;4.440;2022-12-18T03:45:09;102811.53;;;-3.52;100.00
69318;BME280;56457;52.190;4.440;2022-12-18T03:46:13;102813.59;;;-3.47;100.00
69318;BME280;56457;52.190;4.440;2022-12-18T03:47:17;102810.47;;;-3.43;100.00
69318;BME280;56457;52.190;4.440;2022-12-18T03:48:29;102821.22;;;-3.37;100.00
69318;BME280;56457;52.190;4.440;2022-12-18T03:49:45;102814.41;;;-3.37;100.00
69318;BME280;56457;52.190;4.440;2022-12-18T03:50:55;102805.44;;;-3.42;100.00
69318;BME280;56457;52.190;4.440;2022-12-18T03:52:13;102809.69;;;-3.42;100.00
69318;BME280;56457;52.190;4.440;2022-12-18T03:53:28;102804.28;;;-3.35;100.00
69318;BME280;56457;52.190;4.440;2022-12-18T03:54:31;102801.06;;;-3.33;100.00
69318;BME280;56457;52.190;4.440;2022-12-18T03:55:33;102808.75;;;-3.33;100.00
69318;BME280;56457;52.190;4.440;2022-12-18T03:56:39;102803.75;;;-3.31;100.00
69318;BME280;56457;52.190;4.440;2022-12-18T03:57:41;102806.13;;;-3.44;100.00
69318;BME280;56457;52.190;4.440;2022-12-18T03:58:42;102810.59;;;-3.42;100.00
69318;BME280;56457;52.190;4.440;2022-12-18T03:59:44;102811.63;;;-3.40;100.00
69318;BME280;56457;52.190;4.440;2022-12-18T04:00:45;102813.16;;;-3.42;100.00
69318;BME280;56457;52.190;4.440;2022-12-18T04:01:49;102811.06;;;-3.36;100.00
69318;BME280;56457;52.190;4.440;2022-12-18T04:02:51;102810.97;;;-3.37;100.00
69318;BME280;56457;52.190;4.440;2022-12-18T04:03:53;102812.63;;;-3.38;100.00
69318;BME280;56457;52.190;4.440;2022-12-18T04:04:55;102808.28;;;-3.39;100.00
69318;BME280;56457;52.190;4.440;2022-12-18T04:05:56;102809.94;;;-3.39;100.00
69318;BME280;56457;52.190;4.440;2022-12-18T04:06:58;102812.13;;;-3.44;100.00
69318;BME280;56457;52.190;4.440;2022-12-18T04:07:59;102815.00;;;-3.51;100.00
69318;BME280;56457;52.190;4.440;2022-12-18T04:09:00;102813.72;;;-3.56;100.00
69318;BME280;56457;52.190;4.440;2022-12-18T04:10:01;102815.91;;;-3.61;100.00
69318;BME280;56457;52.190;4.440;2022-12-18T04:11:01;102817.09;;;-3.67;100.00
69318;BME280;56457;52.190;4.440;2022-12-18T04:12:02;102829.16;;;-3.66;100.00
69318;BME280;56457;52.190;4.440;2022-12-18T04:13:02;102822.75;;;-3.71;100.00
69318;BME280;56457;52.190;4.440;2022-12-18T04:14:03;102823.38;;;-3.74;100.00
69318;BME280;56457;52.190;4.440;2022-12-18T04:15:03;102829.69;;;-3.70;100.00
69318;BME280;56457;52.190;4.440;2022-12-18T04:16:04;102824.53;;;-3.70;100.00
69318;BME280;56457;52.190;4.440;2022-12-18T04:17:04;102825.56;;;-3.68;100.00
69318;BME280;56457;52.190;4.440;2022-12-18T04:18:04;102821.47;;;-3.66;100.00
69318;BME280;56457;52.190;4.440;2022-12-18T04:19:05;102822.47;;;-3.64;100.00
69318;BME280;56457;52.190;4.440;2022-12-18T04:20:05;102817.88;;;-3.68;100.00
69318;BME280;56457;52.190;4.440;2022-12-18T04:21:05;102819.78;;;-3.66;100.00
69318;BME280;56457;52.190;4.440;2022-12-18T04:22:06;102816.56;;;-3.63;100.00
69318;BME280;56457;52.190;4.440;2022-12-18T04:23:06;102818.47;;;-3.61;100.00
69318;BME280;56457;52.190;4.440;2022-12-18T04:24:06;102824.28;;;-3.63;100.00
69318;BME280;56457;52.190;4.440;2022-12-18T04:25:07;102826.59;;;-3.66;100.00
69318;BME280;56457;52.190;4.440;2022-12-18T04:26:07;102817.88;;;-3.68;100.00
69318;BME280;56457;52.190;4.440;2022-12-18T04:27:08;102829.69;;;-3.70;100.00
69318;BME280;56457;52.190;4.440;2022-12-18T04:28:08;102825.81;;;-3.65;100.00
69318;BME280;56457;52.190;4.440;2022-12-18T04:29:08;102825.56;;;-3.68;100.00
69318;BME280;56457;52.190;4.440;2022-12-18T04:30:09;102818.13;;;-3.65;100.00
69318;BME280;56457;52.190;4.440;2022-12-18T04:31:09;102826.50;;;-3.78;100.00
69318;BME280;56457;52.190;4.440;2022-12-18T04:32:09;102825.06;;;-3.74;100.00
69318;BME280;56457;52.190;4.440;2022-12-18T04:33:10;102830.19;;;-3.74;100.00
69318;BME280;56457;52.190;4.440;2022-12-18T04:34:11;102828.41;;;-3.75;100.00
69318;BME280;56457;52.190;4.440;2022-12-18T04:35:11;102830.31;;;-3.73;100.00
69318;BME280;56457;52.190;4.440;2022-12-18T04:36:11;102831.22;;;-3.72;100.00
69318;BME280;56457;52.190;4.440;2022-12-18T04:37:12;102829.97;;;-3.77;100.00
69318;BME280;56457;52.190;4.440;2022-12-18T04:38:12;102833.28;;;-3.78;100.00
69318;BME280;56457;52.190;4.440;2022-12-18T04:39:13;102832.53;;;-3.77;100.00
69318;BME280;56457;52.190;4.440;2022-12-18T04:40:13;102830.97;;;-3.75;100.00
69318;BME280;56457;52.190;4.440;2022-12-18T04:41:13;102828.03;;;-3.80;100.00
69318;BME280;56457;52.190;4.440;2022-12-18T04:42:14;102830.97;;;-3.86;100.00
69318;BME280;56457;52.190;4.440;2022-12-18T04:43:14;102827.91;;;-3.82;100.00
69318;BME280;56457;52.190;4.440;2022-12-18T04:44:14;102827.13;;;-3.81;100.00
69318;BME280;56457;52.190;4.440;2022-12-18T04:45:14;102834.59;;;-3.84;100.00
69318;BME280;56457;52.190;4.440;2022-12-18T04:46:15;102826.63;;;-3.87;100.00
69318;BME280;56457;52.190;4.440;2022-12-18T04:47:15;102837.78;;;-3.86;100.00
69318;BME280;56457;52.190;4.440;2022-12-18T04:56:33;102825.50;;;-3.90;100.00
69318;BME280;56457;52.190;4.440;2022-12-18T04:57:33;102820.09;;;-3.93;100.00
69318;BME280;56457;52.190;4.440;2022-12-18T04:58:34;102817.91;;;-3.89;100.00
69318;BME280;56457;52.190;4.440;2022-12-18T04:59:34;102822.03;;;-3.91;100.00
69318;BME280;56457;52.190;4.440;2022-12-18T05:00:37;102815.84;;;-3.93;100.00
69318;BME280;56457;52.190;4.440;2022-12-18T05:01:37;102822.66;;;-3.93;100.00
69318;BME280;56457;52.190;4.440;2022-12-18T05:02:37;102821.88;;;-3.92;100.00
69318;BME280;56457;52.190;4.440;2022-12-18T05:03:38;102825.00;;;-3.96;100.00
69318;BME280;56457;52.190;4.440;2022-12-18T05:04:38;102823.03;;;-3.99;100.00
69318;BME280;56457;52.190;4.440;2022-12-18T05:05:39;102825.59;;;-3.99;100.00
69318;BME280;56457;52.190;4.440;2022-12-18T05:06:39;102823.94;;;-3.98;100.00
69318;BME280;56457;52.190;4.440;2022-12-18T05:07:39;102824.22;;;-3.95;100.00
69318;BME280;56457;52.190;4.440;2022-12-18T05:08:39;102826.78;;;-3.95;100.00
69318;BME280;56457;52.190;4.440;2022-12-18T05:09:40;102824.09;;;-3.97;100.00
69318;BME280;56457;52.190;4.440;2022-12-18T05:10:40;102830.13;;;-3.96;100.00
69318;BME280;56457;52.190;4.440;2022-12-18T05:11:40;102835.88;;;-3.99;100.00
69318;BME280;56457;52.190;4.440;2022-12-18T05:12:40;102825.00;;;-3.96;100.00
69318;BME280;56457;52.190;4.440;2022-12-18T05:13:58;102833.56;;;-3.96;100.00
69318;BME280;56457;52.190;4.440;2022-12-18T05:14:58;102835.09;;;-3.98;100.00
69318;BME280;56457;52.190;4.440;2022-12-18T05:15:58;102832.91;;;-3.93;100.00
69318;BME280;56457;52.190;4.440;2022-12-18T05:16:58;102831.91;;;-3.95;100.00
69318;BME280;56457;52.190;4.440;2022-12-18T05:17:59;102828.69;;;-3.93;100.00
69318;BME280;56457;52.190;4.440;2022-12-18T05:18:59;102834.97;;;-3.89;100.00
69318;BME280;56457;52.190;4.440;2022-12-18T05:20:00;102825.72;;;-3.87;100.00
69318;BME280;56457;52.190;4.440;2022-12-18T05:21:00;102824.94;;;-3.86;100.00
69318;BME280;56457;52.190;4.440;2022-12-18T05:22:01;102820.09;;;-3.83;100.00
69318;BME280;56457;52.190;4.440;2022-12-18T05:23:01;102820.75;;;-3.96;100.00
69318;BME280;56457;52.190;4.440;2022-12-18T05:24:01;102815.75;;;-3.94;100.00
69318;BME280;56457;52.190;4.440;2022-12-18T05:25:02;102814.06;;;-3.94;100.00
69318;BME280;56457;52.190;4.440;2022-12-18T05:26:03;102813.44;;;-3.91;100.00
69318;BME280;56457;52.190;4.440;2022-12-18T05:27:04;102806.88;;;-3.88;100.00
69318;BME280;56457;52.190;4.440;2022-12-18T05:28:04;102815.09;;;-3.92;100.00
69318;BME280;56457;52.190;4.440;2022-12-18T05:29:04;102810.72;;;-3.93;100.00
69318;BME280;56457;52.190;4.440;2022-12-18T05:30:05;102812.78;;;-3.89;100.00
69318;BME280;56457;52.190;4.440;2022-12-18T05:31:05;102809.44;;;-3.88;100.00
69318;BME280;56457;52.190;4.440;2022-12-18T05:32:05;102814.56;;;-3.88;100.00
69318;BME280;56457;52.190;4.440;2022-12-18T05:33:06;102812.13;;;-3.86;100.00
69318;BME280;56457;52.190;4.440;2022-12-18T05:34:06;102804.59;;;-3.85;100.00
69318;BME280;56457;52.190;4.440;2022-12-18T05:35:07;102805.47;;;-3.84;100.00
69318;BME280;56457;52.190;4.440;2022-12-18T05:36:08;102801.75;;;-3.88;100.00
69318;BME280;56457;52.190;4.440;2022-12-18T05:37:09;102803.66;;;-3.85;100.00
69318;BME280;56457;52.190;4.440;2022-12-18T05:38:09;102799.84;;;-3.90;100.00
69318;BME280;56457;52.190;4.440;2022-12-18T05:39:10;102797.63;;;-3.86;100.00
69318;BME280;56457;52.190;4.440;2022-12-18T05:40:10;102799.31;;;-3.86;100.00
69318;BME280;56457;52.190;4.440;2022-12-18T05:41:11;102800.19;;;-3.86;100.00
69318;BME280;56457;52.190;4.440;2022-12-18T05:42:11;102791.75;;;-3.85;100.00
69318;BME280;56457;52.190;4.440;2022-12-18T05:43:11;102785.31;;;-3.80;100.00
69318;BME280;56457;52.190;4.440;2022-12-18T05:44:12;102782.50;;;-3.83;100.00
69318;BME280;56457;52.190;4.440;2022-12-18T05:45:12;102777.38;;;-3.83;100.00
69318;BME280;56457;52.190;4.440;2022-12-18T05:46:14;102788.94;;;-3.88;100.00
69318;BME280;56457;52.190;4.440;2022-12-18T05:47:14;102788.41;;;-3.84;100.00
69318;BME280;56457;52.190;4.440;2022-12-18T05:48:15;102789.44;;;-3.82;100.00
69318;BME280;56457;52.190;4.440;2022-12-18T05:49:15;102795.34;;;-3.83;100.00
69318;BME280;56457;52.190;4.440;2022-12-18T05:50:15;102796.34;;;-3.81;100.00